Lammy — PBRE — position and weather

sailwx.info

Track history (hours):
 
Tides and Currents Weather Stations Pressure Air Temp Water Temp Dewpoint Dewpoint Depression Visibility Wind Speed Wind Dir Waves Ship Positions

Lammy

Last reported at 2015-Jul-04 22:30 UTC. Time now 2015-Jul-05 06:04 UTC.
Position N 55°45' E 015°48'.

Length 95 m; draft 4.2 m.

Type: Cargo ship. MMSI: 245391000.

Date/timePositionNaut miles runAvg speedWind from/ knotsBaromVisibWave heightAir tempDewpointWater temp
2015-Jul-04 22:30N 55°45' E 015°48'9 9.2
2015-Jul-04 21:32N 55°40' E 015°34'9 9.3
2015-Jul-04 20:33N 55°36' E 015°20'9 9.0
2015-Jul-04 19:33N 55°31' E 015°06'9 8.8
2015-Jul-04 18:33N 55°27' E 014°52'9 8.9
2015-Jul-04 17:33N 55°22' E 014°39'9 8.8
2015-Jul-04 16:33N 55°16' E 014°28'9 8.6
2015-Jul-04 15:33N 55°11' E 014°15'9 8.7
2015-Jul-04 14:33N 55°11' E 014°00'9 8.7
2015-Jul-04 13:33N 55°11' E 013°45'9 8.8
2015-Jul-04 12:33N 55°12' E 013°30'9 8.6
2015-Jul-04 11:33N 55°14' E 013°15'9 8.9
2015-Jul-04 10:33N 55°15' E 012°59'9 8.7
2015-Jul-04 09:33N 55°16' E 012°44'7 7.3
2015-Jul-04 08:33N 55°23' E 012°39'1010.0
2015-Jul-04 07:33N 55°33' E 012°42'8 8.0
2015-Jul-04 06:33N 55°41' E 012°41'8 8.3
2015-Jul-04 05:34N 55°49' E 012°42'9 8.6
2015-Jul-04 04:33N 55°57' E 012°38'7 7.2
2015-Jul-04 03:32N 56°05' E 012°36'7 7.4
2015-Jul-04 02:33N 56°09' E 012°26'10 9.7
2015-Jul-04 01:33N 56°18' E 012°17'9 8.9
2015-Jul-04 00:33N 56°26' E 012°14'9 8.7
2015-Jul-03 23:32N 56°35' E 012°11'9 9.1
2015-Jul-03 22:33N 56°44' E 012°07'9 9.3
2015-Jul-03 21:33N 56°53' E 012°04'9 9.1
2015-Jul-03 20:33N 57°02' E 011°59'9 9.0
2015-Jul-03 19:33N 57°10' E 011°54'9 8.9
2015-Jul-03 18:33N 57°18' E 011°48'9 8.7
2015-Jul-03 17:33N 57°27' E 011°42'8 8.5
2015-Jul-03 16:33N 57°35' E 011°41'0 0.2
2015-Jul-03 15:31N 57°35' E 011°41'0 0.0
2015-Jul-03 14:33N 57°35' E 011°41'7 6.8
2015-Jul-03 13:33N 57°37' E 011°28'1110.8
2015-Jul-03 12:33N 57°42' E 011°10'1110.7
2015-Jul-03 11:34N 57°46' E 010°52'1010.0
2015-Jul-03 10:33N 57°46' E 010°33'38311.2
2015-Jul-02 00:28N 54°03' E 001°16'1010.4
2015-Jul-01 23:33N 53°57' E 001°04'1110.8
2015-Jul-01 22:33N 53°51' E 000°49'1111.3
2015-Jul-01 21:33N 53°44' E 000°34'1211.7
2015-Jul-01 20:33N 53°36' E 000°19'1010.2
2015-Jul-01 19:33N 53°35' E 000°02'1313.1
2015-Jul-01 18:33N 53°43' W 000°15'1 1.4
2015-Jul-01 17:33N 53°45' W 000°16'0 0.0
2015-Jul-01 16:32N 53°45' W 000°16'0 0.0
2015-Jul-01 15:33N 53°45' W 000°16'0 0.0
2015-Jul-01 14:32N 53°45' W 000°16'0 0.0
2015-Jul-01 13:32N 53°45' W 000°16'0 0.0
2015-Jul-01 12:32N 53°45' W 000°16'0 0.0
2015-Jul-01 11:32N 53°45' W 000°16'0 0.0
2015-Jul-01 10:32N 53°45' W 000°16'0 0.0
2015-Jul-01 09:32N 53°45' W 000°16'0 0.0
2015-Jul-01 08:32N 53°45' W 000°16'0 0.0
2015-Jul-01 07:32N 53°45' W 000°16'0 0.0
2015-Jul-01 06:32N 53°45' W 000°16'0 0.0
2015-Jul-01 05:32N 53°45' W 000°16'0 0.0
2015-Jul-01 04:32N 53°45' W 000°16'0 0.0
2015-Jul-01 03:32N 53°45' W 000°16'0 0.0
2015-Jul-01 02:32N 53°45' W 000°16'0 0.0
2015-Jul-01 01:32N 53°45' W 000°16'0 0.0
2015-Jul-01 00:32N 53°45' W 000°16'0 0.0
2015-Jun-30 23:32N 53°45' W 000°16'0 0.0
2015-Jun-30 22:32N 53°45' W 000°16'0 0.0
2015-Jun-30 21:32N 53°45' W 000°16'0 0.0
2015-Jun-30 20:32N 53°45' W 000°16'0 0.0
2015-Jun-30 19:32N 53°45' W 000°16'0 0.0
2015-Jun-30 18:32N 53°45' W 000°16'0 0.0
2015-Jun-30 17:32N 53°45' W 000°16'0 0.1
2015-Jun-30 16:32N 53°45' W 000°16'0 0.0
2015-Jun-30 15:32N 53°45' W 000°16'0 0.0
2015-Jun-30 14:32N 53°45' W 000°16'0 0.0
2015-Jun-30 13:33N 53°45' W 000°16'0 0.0
2015-Jun-30 12:32N 53°45' W 000°16'0 0.0
2015-Jun-30 11:32N 53°45' W 000°16'0 0.0
2015-Jun-30 10:32N 53°45' W 000°16'0 0.0
2015-Jun-30 09:29N 53°45' W 000°16'0 0.0
2015-Jun-30 08:32N 53°45' W 000°16'0 0.0
2015-Jun-30 07:32N 53°45' W 000°16'0 0.0
2015-Jun-30 06:32N 53°45' W 000°16'0 0.0
2015-Jun-30 05:32N 53°45' W 000°16'0 0.0
2015-Jun-30 04:32N 53°45' W 000°16'0 0.0
2015-Jun-30 03:32N 53°45' W 000°16'0 0.0
2015-Jun-30 02:32N 53°45' W 000°16'0 0.0
2015-Jun-30 01:32N 53°45' W 000°16'0 0.0
2015-Jun-30 00:32N 53°45' W 000°16'0 0.0
2015-Jun-29 23:32N 53°45' W 000°16'0 0.0
2015-Jun-29 22:32N 53°45' W 000°16'0 0.0
2015-Jun-29 21:32N 53°45' W 000°16'0 0.0
2015-Jun-29 20:32N 53°45' W 000°16'0 0.0
2015-Jun-29 19:32N 53°45' W 000°16'0 0.0
2015-Jun-29 18:32N 53°45' W 000°16'0 0.0
2015-Jun-29 17:32N 53°45' W 000°16'0 0.0
2015-Jun-29 16:32N 53°45' W 000°16'0 0.0
2015-Jun-29 15:32N 53°45' W 000°16'0 0.0
2015-Jun-29 14:32N 53°45' W 000°16'0 0.0
2015-Jun-29 13:32N 53°45' W 000°16'0 0.0
2015-Jun-29 12:26N 53°45' W 000°16'0 0.1
2015-Jun-29 11:32N 53°44' W 000°16'0 0.0
2015-Jun-29 10:32N 53°44' W 000°16'0 0.0
2015-Jun-29 09:32N 53°45' W 000°16'0 0.0
2015-Jun-29 08:32N 53°45' W 000°16'0 0.0
2015-Jun-29 07:32N 53°44' W 000°16'0 0.0
2015-Jun-29 06:32N 53°44' W 000°16'0 0.0
2015-Jun-29 05:32N 53°44' W 000°16'0 0.0
2015-Jun-29 04:32N 53°45' W 000°16'0 0.0
2015-Jun-29 03:32N 53°44' W 000°16'0 0.0
2015-Jun-29 02:29N 53°44' W 000°16'0 0.0
2015-Jun-29 01:32N 53°44' W 000°16'0 0.0
2015-Jun-29 00:33N 53°44' W 000°16'0 0.4
2015-Jun-28 23:33N 53°44' W 000°17'6 6.3
2015-Jun-28 22:33N 53°39' W 000°12'10 9.9
2015-Jun-28 21:33N 53°35' E 000°04'44610.9
2015-Jun-27 04:32N 57°39' E 011°04'1010.3
2015-Jun-27 03:33N 57°32' E 011°17'10 9.8
2015-Jun-27 02:33N 57°25' E 011°28'1010.0
2015-Jun-27 01:33N 57°15' E 011°35'1010.5
2015-Jun-27 00:33N 57°05' E 011°41'1110.6
2015-Jun-26 23:33N 56°55' E 011°48'1110.5
2015-Jun-26 22:33N 56°45' E 011°55'1211.0
2015-Jun-26 21:27N 56°33' E 011°59'910.5
2015-Jun-26 20:33N 56°24' E 012°03'10 9.9
2015-Jun-26 19:33N 56°16' E 012°11'1211.5
2015-Jun-26 18:33N 56°09' E 012°29'1111.2
2015-Jun-26 17:33N 56°00' E 012°41'1111.2
2015-Jun-26 16:33N 55°49' E 012°44'1211.5
2015-Jun-26 15:33N 55°38' E 012°42'1111.0
2015-Jun-26 14:33N 55°27' E 012°42'68 9.6
2015-Jun-26 07:29N 55°29' E 014°42'1311.8
2015-Jun-26 06:21N 55°36' E 015°02'1011.7
2015-Jun-26 05:31N 55°41' E 015°17'11611.3
2015-Jun-25 19:18N 57°11' E 017°29'  
Track history (hours):
 
Tides and Currents Weather Stations Pressure Air Temp Water Temp Dewpoint Dewpoint Depression Visibility Wind Speed Wind Dir Waves Ship Positions

Lammy

Last reported at 2015-Jul-04 22:30 UTC. Time now 2015-Jul-05 06:04 UTC.
Position N 55°45' E 015°48'.

Length 95 m; draft 4.2 m.

Type: Cargo ship. MMSI: 245391000.

Date/timePositionNaut miles runAvg speedWind from/ knotsBaromVisibWave heightAir tempDewpointWater temp
2015-Jul-04 22:30N 55°45' E 015°48'9 9.2
2015-Jul-04 21:32N 55°40' E 015°34'9 9.3
2015-Jul-04 20:33N 55°36' E 015°20'9 9.0
2015-Jul-04 19:33N 55°31' E 015°06'9 8.8
2015-Jul-04 18:33N 55°27' E 014°52'9 8.9
2015-Jul-04 17:33N 55°22' E 014°39'9 8.8
2015-Jul-04 16:33N 55°16' E 014°28'9 8.6
2015-Jul-04 15:33N 55°11' E 014°15'9 8.7
2015-Jul-04 14:33N 55°11' E 014°00'9 8.7
2015-Jul-04 13:33N 55°11' E 013°45'9 8.8
2015-Jul-04 12:33N 55°12' E 013°30'9 8.6
2015-Jul-04 11:33N 55°14' E 013°15'9 8.9
2015-Jul-04 10:33N 55°15' E 012°59'9 8.7
2015-Jul-04 09:33N 55°16' E 012°44'7 7.3
2015-Jul-04 08:33N 55°23' E 012°39'1010.0
2015-Jul-04 07:33N 55°33' E 012°42'8 8.0
2015-Jul-04 06:33N 55°41' E 012°41'8 8.3
2015-Jul-04 05:34N 55°49' E 012°42'9 8.6
2015-Jul-04 04:33N 55°57' E 012°38'7 7.2
2015-Jul-04 03:32N 56°05' E 012°36'7 7.4
2015-Jul-04 02:33N 56°09' E 012°26'10 9.7
2015-Jul-04 01:33N 56°18' E 012°17'9 8.9
2015-Jul-04 00:33N 56°26' E 012°14'9 8.7
2015-Jul-03 23:32N 56°35' E 012°11'9 9.1
2015-Jul-03 22:33N 56°44' E 012°07'9 9.3
2015-Jul-03 21:33N 56°53' E 012°04'9 9.1
2015-Jul-03 20:33N 57°02' E 011°59'9 9.0
2015-Jul-03 19:33N 57°10' E 011°54'9 8.9
2015-Jul-03 18:33N 57°18' E 011°48'9 8.7
2015-Jul-03 17:33N 57°27' E 011°42'8 8.5
2015-Jul-03 16:33N 57°35' E 011°41'0 0.2
2015-Jul-03 15:31N 57°35' E 011°41'0 0.0
2015-Jul-03 14:33N 57°35' E 011°41'7 6.8
2015-Jul-03 13:33N 57°37' E 011°28'1110.8
2015-Jul-03 12:33N 57°42' E 011°10'1110.7
2015-Jul-03 11:34N 57°46' E 010°52'1010.0
2015-Jul-03 10:33N 57°46' E 010°33'38311.2
2015-Jul-02 00:28N 54°03' E 001°16'1010.4
2015-Jul-01 23:33N 53°57' E 001°04'1110.8
2015-Jul-01 22:33N 53°51' E 000°49'1111.3
2015-Jul-01 21:33N 53°44' E 000°34'1211.7
2015-Jul-01 20:33N 53°36' E 000°19'1010.2
2015-Jul-01 19:33N 53°35' E 000°02'1313.1
2015-Jul-01 18:33N 53°43' W 000°15'1 1.4
2015-Jul-01 17:33N 53°45' W 000°16'0 0.0
2015-Jul-01 16:32N 53°45' W 000°16'0 0.0
2015-Jul-01 15:33N 53°45' W 000°16'0 0.0
2015-Jul-01 14:32N 53°45' W 000°16'0 0.0
2015-Jul-01 13:32N 53°45' W 000°16'0 0.0
2015-Jul-01 12:32N 53°45' W 000°16'0 0.0
2015-Jul-01 11:32N 53°45' W 000°16'0 0.0
2015-Jul-01 10:32N 53°45' W 000°16'0 0.0
2015-Jul-01 09:32N 53°45' W 000°16'0 0.0
2015-Jul-01 08:32N 53°45' W 000°16'0 0.0
2015-Jul-01 07:32N 53°45' W 000°16'0 0.0
2015-Jul-01 06:32N 53°45' W 000°16'0 0.0
2015-Jul-01 05:32N 53°45' W 000°16'0 0.0
2015-Jul-01 04:32N 53°45' W 000°16'0 0.0
2015-Jul-01 03:32N 53°45' W 000°16'0 0.0
2015-Jul-01 02:32N 53°45' W 000°16'0 0.0
2015-Jul-01 01:32N 53°45' W 000°16'0 0.0
2015-Jul-01 00:32N 53°45' W 000°16'0 0.0
2015-Jun-30 23:32N 53°45' W 000°16'0 0.0
2015-Jun-30 22:32N 53°45' W 000°16'0 0.0
2015-Jun-30 21:32N 53°45' W 000°16'0 0.0
2015-Jun-30 20:32N 53°45' W 000°16'0 0.0
2015-Jun-30 19:32N 53°45' W 000°16'0 0.0
2015-Jun-30 18:32N 53°45' W 000°16'0 0.0
2015-Jun-30 17:32N 53°45' W 000°16'0 0.1
2015-Jun-30 16:32N 53°45' W 000°16'0 0.0
2015-Jun-30 15:32N 53°45' W 000°16'0 0.0
2015-Jun-30 14:32N 53°45' W 000°16'0 0.0
2015-Jun-30 13:33N 53°45' W 000°16'0 0.0
2015-Jun-30 12:32N 53°45' W 000°16'0 0.0
2015-Jun-30 11:32N 53°45' W 000°16'0 0.0
2015-Jun-30 10:32N 53°45' W 000°16'0 0.0
2015-Jun-30 09:29N 53°45' W 000°16'0 0.0
2015-Jun-30 08:32N 53°45' W 000°16'0 0.0
2015-Jun-30 07:32N 53°45' W 000°16'0 0.0
2015-Jun-30 06:32N 53°45' W 000°16'0 0.0
2015-Jun-30 05:32N 53°45' W 000°16'0 0.0
2015-Jun-30 04:32N 53°45' W 000°16'0 0.0
2015-Jun-30 03:32N 53°45' W 000°16'0 0.0
2015-Jun-30 02:32N 53°45' W 000°16'0 0.0
2015-Jun-30 01:32N 53°45' W 000°16'0 0.0
2015-Jun-30 00:32N 53°45' W 000°16'0 0.0
2015-Jun-29 23:32N 53°45' W 000°16'0 0.0
2015-Jun-29 22:32N 53°45' W 000°16'0 0.0
2015-Jun-29 21:32N 53°45' W 000°16'0 0.0
2015-Jun-29 20:32N 53°45' W 000°16'0 0.0
2015-Jun-29 19:32N 53°45' W 000°16'0 0.0
2015-Jun-29 18:32N 53°45' W 000°16'0 0.0
2015-Jun-29 17:32N 53°45' W 000°16'0 0.0
2015-Jun-29 16:32N 53°45' W 000°16'0 0.0
2015-Jun-29 15:32N 53°45' W 000°16'0 0.0
2015-Jun-29 14:32N 53°45' W 000°16'0 0.0
2015-Jun-29 13:32N 53°45' W 000°16'0 0.0
2015-Jun-29 12:26N 53°45' W 000°16'0 0.1
2015-Jun-29 11:32N 53°44' W 000°16'0 0.0
2015-Jun-29 10:32N 53°44' W 000°16'0 0.0
2015-Jun-29 09:32N 53°45' W 000°16'0 0.0
2015-Jun-29 08:32N 53°45' W 000°16'0 0.0
2015-Jun-29 07:32N 53°44' W 000°16'0 0.0
2015-Jun-29 06:32N 53°44' W 000°16'0 0.0
2015-Jun-29 05:32N 53°44' W 000°16'0 0.0
2015-Jun-29 04:32N 53°45' W 000°16'0 0.0
2015-Jun-29 03:32N 53°44' W 000°16'0 0.0
2015-Jun-29 02:29N 53°44' W 000°16'0 0.0
2015-Jun-29 01:32N 53°44' W 000°16'0 0.0
2015-Jun-29 00:33N 53°44' W 000°16'0 0.4
2015-Jun-28 23:33N 53°44' W 000°17'6 6.3
2015-Jun-28 22:33N 53°39' W 000°12'10 9.9
2015-Jun-28 21:33N 53°35' E 000°04'44610.9
2015-Jun-27 04:32N 57°39' E 011°04'1010.3
2015-Jun-27 03:33N 57°32' E 011°17'10 9.8
2015-Jun-27 02:33N 57°25' E 011°28'1010.0
2015-Jun-27 01:33N 57°15' E 011°35'1010.5
2015-Jun-27 00:33N 57°05' E 011°41'1110.6
2015-Jun-26 23:33N 56°55' E 011°48'1110.5
2015-Jun-26 22:33N 56°45' E 011°55'1211.0
2015-Jun-26 21:27N 56°33' E 011°59'910.5
2015-Jun-26 20:33N 56°24' E 012°03'10 9.9
2015-Jun-26 19:33N 56°16' E 012°11'1211.5
2015-Jun-26 18:33N 56°09' E 012°29'1111.2
2015-Jun-26 17:33N 56°00' E 012°41'1111.2
2015-Jun-26 16:33N 55°49' E 012°44'1211.5
2015-Jun-26 15:33N 55°38' E 012°42'1111.0
2015-Jun-26 14:33N 55°27' E 012°42'68 9.6
2015-Jun-26 07:29N 55°29' E 014°42'1311.8
2015-Jun-26 06:21N 55°36' E 015°02'1011.7
2015-Jun-26 05:31N 55°41' E 015°17'11611.3
2015-Jun-25 19:18N 57°11' E 017°29'  

Dump ship's entire track history